createdAt,value
2017-01-03T00:01:43.737Z,2.7
2017-01-03T00:03:57.236Z,2.69
2017-01-03T00:06:09.904Z,2.68
2017-01-03T00:08:24.291Z,2.69
2017-01-03T00:10:41.298Z,2.69
2017-01-03T00:12:54.479Z,2.68
2017-01-03T00:15:08.945Z,2.7
2017-01-03T00:17:21.265Z,2.7
2017-01-03T00:19:33.537Z,2.71
2017-01-03T00:21:40.833Z,2.7
2017-01-03T00:23:53.099Z,2.71
2017-01-03T00:26:01.361Z,2.7
2017-01-03T00:28:13.646Z,2.71
2017-01-03T00:30:25.849Z,2.71
2017-01-03T00:32:34.177Z,2.72
2017-01-03T00:34:46.405Z,2.72
2017-01-03T00:36:58.744Z,2.73
2017-01-03T00:39:11.447Z,2.73
2017-01-03T00:41:18.945Z,2.73
2017-01-03T00:43:31.354Z,2.74
2017-01-03T00:45:43.580Z,2.75
2017-01-03T00:47:55.954Z,2.75
2017-01-03T00:50:08.421Z,2.74
2017-01-03T00:52:20.659Z,2.73
2017-01-03T00:54:32.965Z,2.72
2017-01-03T00:56:35.305Z,2.73
2017-01-03T00:58:47.468Z,2.73
2017-01-03T01:00:59.822Z,2.73
2017-01-03T01:03:12.172Z,2.72
2017-01-03T01:05:24.550Z,2.73
2017-01-03T01:07:36.822Z,2.72
2017-01-03T01:09:51.219Z,2.73
2017-01-03T01:12:03.822Z,2.72
2017-01-03T01:14:16.386Z,2.71
2017-01-03T01:16:28.723Z,2.72
2017-01-03T01:18:41.272Z,2.73
2017-01-03T01:20:53.645Z,2.74
2017-01-03T01:23:00.963Z,2.74
2017-01-03T01:25:13.250Z,2.75
2017-01-03T01:27:25.475Z,2.76
2017-01-03T01:29:37.732Z,2.78
2017-01-03T01:31:50.043Z,2.8
2017-01-03T01:34:02.409Z,2.81
2017-01-03T01:36:10.835Z,2.82
2017-01-03T01:38:23.079Z,2.83
2017-01-03T01:40:35.535Z,2.83
2017-01-03T01:42:47.850Z,2.84
2017-01-03T01:45:00.132Z,2.85
2017-01-03T01:47:07.641Z,2.85
2017-01-03T01:49:19.845Z,2.86
2017-01-03T01:51:27.239Z,2.87
2017-01-03T01:53:39.635Z,2.87
2017-01-03T01:55:51.940Z,2.87
2017-01-03T01:58:04.329Z,2.87
2017-01-03T02:00:11.745Z,2.88
2017-01-03T02:02:24.217Z,2.89
2017-01-03T02:04:36.404Z,2.9
2017-01-03T02:06:49.702Z,2.9
2017-01-03T02:09:03.165Z,2.9
2017-01-03T02:11:15.439Z,2.89
2017-01-03T02:13:27.673Z,2.9
2017-01-03T02:15:39.968Z,2.9
2017-01-03T02:17:52.374Z,2.9
2017-01-03T02:19:59.670Z,2.89
2017-01-03T02:22:08.246Z,2.9
2017-01-03T02:24:20.736Z,2.9
2017-01-03T02:26:33.193Z,2.92
2017-01-03T02:28:46.407Z,2.93
2017-01-03T02:30:58.658Z,2.93
2017-01-03T02:33:10.967Z,2.94
2017-01-03T02:35:18.396Z,2.95
2017-01-03T02:37:25.816Z,2.96
2017-01-03T02:39:38.157Z,2.98
2017-01-03T02:41:46.630Z,2.99
2017-01-03T02:43:59.192Z,2.98
2017-01-03T02:46:06.435Z,2.99
2017-01-03T02:48:13.758Z,2.99
2017-01-03T02:50:26.187Z,2.98
2017-01-03T02:52:38.441Z,2.97
2017-01-03T02:54:50.832Z,2.97
2017-01-03T02:57:03.179Z,2.96
2017-01-03T02:59:15.681Z,2.97
2017-01-03T03:01:27.984Z,2.95
2017-01-03T03:03:40.310Z,2.95
2017-01-03T03:05:52.607Z,2.95
2017-01-03T03:08:04.858Z,2.95
2017-01-03T03:10:12.109Z,2.97
2017-01-03T03:12:24.371Z,2.98
2017-01-03T03:14:36.845Z,2.98
2017-01-03T03:16:44.302Z,2.98
2017-01-03T03:18:56.670Z,2.99
2017-01-03T03:21:09.101Z,3
2017-01-03T03:23:21.486Z,2.99
2017-01-03T03:25:33.807Z,3
2017-01-03T03:27:46.035Z,3
2017-01-03T03:29:53.243Z,2.99
2017-01-03T03:32:05.723Z,2.98
2017-01-03T03:34:13.594Z,2.98
2017-01-03T03:36:25.883Z,2.98
2017-01-03T03:38:38.252Z,2.98
2017-01-03T03:40:45.488Z,2.97
2017-01-03T03:42:57.911Z,2.99
2017-01-03T03:45:10.281Z,2.99
2017-01-03T03:47:22.685Z,2.99
2017-01-03T03:49:35.207Z,2.99
2017-01-03T03:51:37.537Z,2.99
2017-01-03T03:53:49.789Z,2.99
2017-01-03T03:55:57.132Z,3
2017-01-03T03:58:09.567Z,3
2017-01-03T04:00:22.052Z,3.02
2017-01-03T04:02:34.253Z,3.02
2017-01-03T04:04:46.489Z,3.02
2017-01-03T04:06:59.300Z,3.02
2017-01-03T04:09:06.795Z,3.03
2017-01-03T04:11:19.152Z,3.03
2017-01-03T04:13:31.461Z,3.03
2017-01-03T04:15:43.755Z,3.03
2017-01-03T04:17:56.308Z,3.03
2017-01-03T04:20:08.517Z,3.04
2017-01-03T04:22:15.918Z,3.04
2017-01-03T04:24:28.233Z,3.04
2017-01-03T04:26:40.560Z,3.04
2017-01-03T04:28:52.881Z,3.04
2017-01-03T04:31:05.272Z,3.04
2017-01-03T04:33:17.645Z,3.05
2017-01-03T04:35:30.002Z,3.03
2017-01-03T04:37:42.405Z,3.03
2017-01-03T04:39:54.667Z,3.03
2017-01-03T04:42:07.130Z,3.02
2017-01-03T04:44:20.429Z,3.01
2017-01-03T04:46:32.694Z,3
2017-01-03T04:48:45.002Z,2.99
2017-01-03T04:50:57.559Z,2.99
2017-01-03T04:53:10.008Z,2.97
2017-01-03T04:55:18.170Z,2.97
2017-01-03T04:57:31.332Z,2.97
2017-01-03T04:59:43.742Z,2.96
2017-01-03T05:01:52.346Z,2.97
2017-01-03T05:03:59.771Z,2.97
2017-01-03T05:06:12.175Z,2.98
2017-01-03T05:08:25.573Z,2.99
2017-01-03T05:10:37.888Z,3
2017-01-03T05:12:45.597Z,3
2017-01-03T05:14:58.334Z,3
2017-01-03T05:17:05.830Z,3
2017-01-03T05:19:18.598Z,3.01
2017-01-03T05:21:30.883Z,3.01
2017-01-03T05:23:43.109Z,3.02
2017-01-03T05:25:50.549Z,3.01
2017-01-03T05:28:04.032Z,2.99
2017-01-03T05:30:16.430Z,2.97
2017-01-03T05:32:28.938Z,2.95
2017-01-03T05:34:36.184Z,2.94
2017-01-03T05:36:43.623Z,2.95
2017-01-03T05:38:50.892Z,2.94
2017-01-03T05:41:03.093Z,2.94
2017-01-03T05:43:15.398Z,2.94
2017-01-03T05:45:27.903Z,2.95
2017-01-03T05:47:40.364Z,2.96
2017-01-03T05:49:52.883Z,2.94
2017-01-03T05:52:05.602Z,2.95
2017-01-03T05:54:18.628Z,2.94
2017-01-03T05:56:31.133Z,2.93
2017-01-03T05:58:43.446Z,2.92
2017-01-03T06:00:55.815Z,2.9
2017-01-03T06:03:08.046Z,2.88
2017-01-03T06:05:20.504Z,2.86
2017-01-03T06:07:32.926Z,2.84
2017-01-03T06:09:45.084Z,2.82
2017-01-03T06:11:57.267Z,2.8
2017-01-03T06:14:09.451Z,2.78
2017-01-03T06:16:21.667Z,2.77
2017-01-03T06:18:28.957Z,2.76
2017-01-03T06:20:41.352Z,2.76
2017-01-03T06:22:48.738Z,2.75
2017-01-03T06:24:56.129Z,2.76
2017-01-03T06:27:09.253Z,2.74
2017-01-03T06:29:21.632Z,2.73
2017-01-03T06:31:33.997Z,2.72
2017-01-03T06:33:46.213Z,2.71
2017-01-03T06:35:58.753Z,2.7
2017-01-03T06:38:11.105Z,2.69
2017-01-03T06:40:23.364Z,2.68
2017-01-03T06:42:35.705Z,2.67
2017-01-03T06:44:48.026Z,2.66
2017-01-03T06:46:55.437Z,2.64
2017-01-03T06:49:07.875Z,2.59
2017-01-03T06:51:10.328Z,2.54
2017-01-03T06:53:22.585Z,2.48
2017-01-03T06:55:36.399Z,2.41
2017-01-03T06:57:50.264Z,2.36
2017-01-03T06:59:57.844Z,2.32
2017-01-03T07:02:10.654Z,2.28
2017-01-03T07:04:22.968Z,2.26
2017-01-03T07:06:35.331Z,2.21
2017-01-03T07:08:47.709Z,2.15
2017-01-03T07:10:55.744Z,2.1
2017-01-03T07:13:03.381Z,2.03
2017-01-03T07:15:15.784Z,1.97
2017-01-03T07:17:24.697Z,1.91
2017-01-03T07:19:37.141Z,1.86
2017-01-03T07:21:57.444Z,1.81
2017-01-03T07:24:09.860Z,1.76
2017-01-03T07:26:22.395Z,1.74
2017-01-03T07:28:34.713Z,1.71
2017-01-03T07:30:42.104Z,1.69
2017-01-03T07:32:54.259Z,1.65
2017-01-03T07:35:06.690Z,1.62
2017-01-03T07:37:19.422Z,1.6
2017-01-03T07:39:32.110Z,1.58
2017-01-03T07:41:39.392Z,1.56
2017-01-03T07:43:51.663Z,1.53
2017-01-03T07:46:04.861Z,1.49
2017-01-03T07:48:17.106Z,1.47
2017-01-03T07:50:24.412Z,1.49
2017-01-03T07:52:36.981Z,1.43
2017-01-03T07:54:44.509Z,1.19
2017-01-03T07:56:57.014Z,0.92
2017-01-03T07:59:09.176Z,0.75
2017-01-03T08:01:21.437Z,0.63
2017-01-03T08:03:28.894Z,0.52
2017-01-03T08:05:41.179Z,0.45
2017-01-03T08:07:53.733Z,0.48
2017-01-03T08:10:01.051Z,0.58
2017-01-03T08:12:13.884Z,0.51
2017-01-03T08:14:21.427Z,0.52
2017-01-03T08:16:33.617Z,0.58
2017-01-03T08:18:45.835Z,0.67
2017-01-03T08:20:58.038Z,0.78
2017-01-03T08:23:05.344Z,0.94
2017-01-03T08:25:17.565Z,1.04
2017-01-03T08:27:29.779Z,1.16
2017-01-03T08:29:37.364Z,1.37
2017-01-03T08:31:39.734Z,1.44
2017-01-03T08:33:52.287Z,1.47
2017-01-03T08:36:04.676Z,1.73
2017-01-03T08:38:16.828Z,1.98
2017-01-03T08:40:29.114Z,2.1
2017-01-03T08:42:41.337Z,2.27
2017-01-03T08:44:55.172Z,2.58
2017-01-03T08:47:02.496Z,2.68
2017-01-03T08:49:14.752Z,2.56
2017-01-03T08:51:29.260Z,2.4
2017-01-03T08:53:41.566Z,2.35
2017-01-03T08:55:54.913Z,2.23
2017-01-03T08:58:02.272Z,2.19
2017-01-03T09:00:14.455Z,2.14
2017-01-03T09:02:26.817Z,2.21
2017-01-03T09:04:39.016Z,2.16
2017-01-03T09:06:52.129Z,2.22
2017-01-03T09:09:11.324Z,2.38
2017-01-03T09:11:31.087Z,2.49
2017-01-03T09:13:43.308Z,2.54
2017-01-03T09:16:08.137Z,2.47
2017-01-03T09:18:58.090Z,2.45
2017-01-03T09:21:29.502Z,2.53
2017-01-03T09:23:42.105Z,2.58
2017-01-03T09:25:55.692Z,2.52
2017-01-03T09:28:07.970Z,2.55
2017-01-03T09:30:10.546Z,2.67
2017-01-03T09:32:17.982Z,2.75
2017-01-03T09:34:30.321Z,2.7
2017-01-03T09:36:37.753Z,2.69
2017-01-03T09:38:50.090Z,2.79
2017-01-03T09:41:02.390Z,3.03
2017-01-03T09:43:14.538Z,3.21
2017-01-03T09:45:27.026Z,3.34
2017-01-03T09:47:39.254Z,3.4
2017-01-03T09:49:46.556Z,3.42
2017-01-03T09:51:58.810Z,3.4
2017-01-03T09:54:11.015Z,3.55
2017-01-03T09:56:23.293Z,4.05
2017-01-03T09:58:35.708Z,4.62
2017-01-03T10:00:48.177Z,5.13
2017-01-03T10:03:00.839Z,5.06
2017-01-03T10:05:13.183Z,5.12
2017-01-03T10:07:25.524Z,5.4
2017-01-03T10:09:37.659Z,5.88
2017-01-03T10:11:45.128Z,6.17
2017-01-03T10:13:57.285Z,6.46
2017-01-03T10:16:04.570Z,6.83
2017-01-03T10:18:16.788Z,7.26
2017-01-03T10:20:29.009Z,6.92
2017-01-03T10:22:41.394Z,7.27
2017-01-03T10:24:53.575Z,8.85
2017-01-03T10:27:05.912Z,10.2
2017-01-03T10:29:13.406Z,11.71
2017-01-03T10:31:25.888Z,10.38
2017-01-03T10:33:38.228Z,9.71
2017-01-03T10:35:50.633Z,9.56
2017-01-03T10:38:03.343Z,8.45
2017-01-03T10:40:16.006Z,9.28
2017-01-03T10:42:23.440Z,8.79
2017-01-03T10:44:30.736Z,11.68
2017-01-03T10:46:41.358Z,14.73
2017-01-03T10:48:53.577Z,16.24
2017-01-03T10:51:05.991Z,16.82
2017-01-03T10:53:18.380Z,17.48
2017-01-03T10:55:30.814Z,17.68
2017-01-03T10:57:43.041Z,18.21
2017-01-03T10:59:55.559Z,18.48
2017-01-03T11:02:08.113Z,17.76
2017-01-03T11:04:21.495Z,16.1
2017-01-03T11:06:29.133Z,13.23
2017-01-03T11:08:41.363Z,11.68
2017-01-03T11:10:53.618Z,10.19
2017-01-03T11:13:06.068Z,9.37
2017-01-03T11:15:18.763Z,8.67
2017-01-03T11:17:26.178Z,8.37
2017-01-03T11:19:38.387Z,8.14
2017-01-03T11:21:50.739Z,8.12
2017-01-03T11:23:58.049Z,8.04
2017-01-03T11:26:06.558Z,8.16
2017-01-03T11:28:18.810Z,8.47
2017-01-03T11:30:26.289Z,8.39
2017-01-03T11:32:38.607Z,7.8
2017-01-03T11:34:46.072Z,7.6
2017-01-03T11:36:58.341Z,6.95
2017-01-03T11:39:10.826Z,6.4
2017-01-03T11:41:23.126Z,6.14
2017-01-03T11:43:35.362Z,6.06
2017-01-03T11:45:47.689Z,6.9
2017-01-03T11:47:59.877Z,7.21
2017-01-03T11:50:12.291Z,7.62
2017-01-03T11:52:19.977Z,11.11
2017-01-03T11:54:32.228Z,12.57
2017-01-03T11:56:39.655Z,13.13
2017-01-03T11:58:52.034Z,13
2017-01-03T12:01:04.479Z,13.82
2017-01-03T12:03:16.881Z,14.06
2017-01-03T12:05:29.241Z,12.49
2017-01-03T12:07:41.773Z,11.18
2017-01-03T12:09:49.149Z,11.44
2017-01-03T12:12:01.551Z,11.22
2017-01-03T12:14:13.831Z,9.97
2017-01-03T12:16:21.294Z,9.73
2017-01-03T12:18:33.808Z,8.3
2017-01-03T12:20:46.864Z,8.46
2017-01-03T12:22:59.400Z,10.54
2017-01-03T12:25:11.818Z,10.57
2017-01-03T12:27:19.285Z,11.49
2017-01-03T12:29:31.812Z,12.73
2017-01-03T12:31:39.216Z,13.19
2017-01-03T12:33:51.680Z,13.57
2017-01-03T12:35:59.100Z,13.71
2017-01-03T12:38:11.461Z,13.93
2017-01-03T12:40:24.533Z,12.94
2017-01-03T12:42:37.131Z,13.32
2017-01-03T12:44:49.437Z,13.9
2017-01-03T12:47:01.818Z,12.9
2017-01-03T12:49:14.134Z,12.47
2017-01-03T12:51:26.477Z,11.86
2017-01-03T12:53:34.081Z,10.07
2017-01-03T12:55:41.316Z,9.96
2017-01-03T12:57:53.807Z,9.03
2017-01-03T13:00:01.171Z,8.81
2017-01-03T13:02:13.621Z,8.58
2017-01-03T13:04:20.869Z,8.27
2017-01-03T13:06:33.209Z,7.92
2017-01-03T13:08:45.675Z,7.76
2017-01-03T13:10:58.030Z,8.29
2017-01-03T13:13:10.563Z,8.36
2017-01-03T13:15:22.995Z,9.01
2017-01-03T13:17:35.448Z,9.67
2017-01-03T13:19:47.893Z,9.67
2017-01-03T13:21:55.354Z,9.23
2017-01-03T13:24:02.805Z,8.82
2017-01-03T13:26:10.089Z,9.14
2017-01-03T13:28:22.457Z,9.81
2017-01-03T13:30:29.852Z,9.63
2017-01-03T13:32:42.391Z,9.1
2017-01-03T13:34:55.180Z,9.24
2017-01-03T13:37:07.596Z,9.98
2017-01-03T13:39:19.911Z,9.98
2017-01-03T13:41:32.130Z,10.06
2017-01-03T13:43:44.398Z,10.17
2017-01-03T13:45:51.828Z,9.92
2017-01-03T13:48:04.109Z,8.71
2017-01-03T13:50:19.078Z,7.73
2017-01-03T13:52:31.448Z,7.03
2017-01-03T13:54:38.872Z,6.67
2017-01-03T13:56:51.134Z,7.63
2017-01-03T13:59:03.416Z,7.55
2017-01-03T14:01:15.615Z,7.19
2017-01-03T14:03:23.042Z,7.01
2017-01-03T14:05:35.257Z,6.98
2017-01-03T14:07:48.758Z,6.48
2017-01-03T14:09:56.232Z,6.11
2017-01-03T14:12:08.623Z,5.92
2017-01-03T14:14:20.967Z,5.93
2017-01-03T14:16:33.253Z,5.75
2017-01-03T14:18:46.924Z,5.56
2017-01-03T14:20:59.186Z,5.34
2017-01-03T14:23:09.178Z,5.16
2017-01-03T14:25:11.547Z,4.95
2017-01-03T14:27:23.778Z,5.04
2017-01-03T14:29:36.161Z,5.18
2017-01-03T14:31:43.967Z,5.26
2017-01-03T14:33:56.439Z,5.19
2017-01-03T14:36:08.853Z,5.04
2017-01-03T14:38:16.059Z,4.75
2017-01-03T14:40:25.827Z,4.47
2017-01-03T14:42:38.286Z,4.13
2017-01-03T14:44:50.864Z,3.82
2017-01-03T14:47:03.181Z,3.64
2017-01-03T14:49:15.456Z,3.47
2017-01-03T14:51:27.876Z,3.22
2017-01-03T14:53:40.177Z,2.99
2017-01-03T14:55:47.676Z,2.79
2017-01-03T14:57:55.058Z,2.65
2017-01-03T15:00:07.474Z,2.48
2017-01-03T15:02:14.957Z,2.32
2017-01-03T15:04:27.298Z,2.14
2017-01-03T15:06:39.570Z,1.97
2017-01-03T15:08:52.943Z,1.79
2017-01-03T15:11:05.268Z,1.6
2017-01-03T15:13:17.571Z,1.42
2017-01-03T15:15:29.946Z,1.25
2017-01-03T15:17:42.409Z,1.1
2017-01-03T15:19:54.771Z,0.96
2017-01-03T15:22:07.266Z,0.82
2017-01-03T15:24:19.576Z,0.67
2017-01-03T15:26:32.107Z,0.52
2017-01-03T15:28:44.528Z,0.36
2017-01-03T15:30:56.909Z,0.2
2017-01-03T15:33:09.432Z,0.05
2017-01-03T15:35:17.007Z,-0.05
2017-01-03T15:37:29.993Z,-0.16
2017-01-03T15:39:42.401Z,-0.27
2017-01-03T15:41:54.807Z,-0.34
2017-01-03T15:44:06.974Z,-0.39
2017-01-03T15:46:19.211Z,-0.42
2017-01-03T15:48:31.459Z,-0.43
2017-01-03T15:50:43.945Z,-0.42
2017-01-03T15:52:56.442Z,-0.38
2017-01-03T15:55:08.917Z,-0.37
2017-01-03T15:57:21.485Z,-0.34
2017-01-03T15:59:23.896Z,-0.32
2017-01-03T16:01:31.335Z,-0.31
2017-01-03T16:03:43.550Z,-0.27
2017-01-03T16:05:55.823Z,-0.24
2017-01-03T16:08:08.483Z,-0.24
2017-01-03T16:10:21.315Z,-0.25
2017-01-03T16:12:33.721Z,-0.27
2017-01-03T16:14:46.315Z,-0.27
2017-01-03T16:16:54.807Z,-0.29
2017-01-03T16:19:07.184Z,-0.31
2017-01-03T16:21:19.562Z,-0.33
2017-01-03T16:23:27.066Z,-0.34
2017-01-03T16:25:39.448Z,-0.35
2017-01-03T16:27:51.854Z,-0.32
2017-01-03T16:30:04.307Z,-0.28
2017-01-03T16:32:16.840Z,-0.27
2017-01-03T16:34:29.319Z,-0.28
2017-01-03T16:36:41.611Z,-0.31
2017-01-03T16:38:54.097Z,-0.34
2017-01-03T16:41:06.827Z,-0.36
2017-01-03T16:43:19.262Z,-0.36
2017-01-03T16:45:31.732Z,-0.38
2017-01-03T16:47:44.092Z,-0.4
2017-01-03T16:49:56.665Z,-0.41
2017-01-03T16:52:04.766Z,-0.42
2017-01-03T16:54:17.077Z,-0.44
2017-01-03T16:56:29.400Z,-0.47
2017-01-03T16:58:41.897Z,-0.47
2017-01-03T17:00:49.235Z,-0.48
2017-01-03T17:03:01.609Z,-0.44
2017-01-03T17:05:13.875Z,-0.42
2017-01-03T17:07:26.687Z,-0.37
2017-01-03T17:09:39.139Z,-0.29
2017-01-03T17:11:51.665Z,-0.21
2017-01-03T17:14:04.208Z,-0.15
2017-01-03T17:16:16.414Z,-0.07
2017-01-03T17:18:19.352Z,-0.02
2017-01-03T17:20:31.839Z,0.03
2017-01-03T17:22:44.288Z,0.09
2017-01-03T17:24:56.794Z,0.12
2017-01-03T17:27:09.153Z,0.16
2017-01-03T17:29:21.441Z,0.2
2017-01-03T17:31:28.681Z,0.28
2017-01-03T17:33:35.918Z,0.34
2017-01-03T17:35:48.170Z,0.4
2017-01-03T17:37:55.417Z,0.44
2017-01-03T17:40:02.825Z,0.48
2017-01-03T17:42:13.675Z,0.54
2017-01-03T17:44:26.470Z,0.57
2017-01-03T17:46:38.904Z,0.61
2017-01-03T17:48:51.068Z,0.64
2017-01-03T17:51:03.456Z,0.66
2017-01-03T17:53:15.697Z,0.68
2017-01-03T17:55:29.755Z,0.71
2017-01-03T17:57:37.106Z,0.74
2017-01-03T17:59:49.561Z,0.75
2017-01-03T18:01:57.083Z,0.78
2017-01-03T18:04:09.404Z,0.81
2017-01-03T18:06:21.904Z,0.84
2017-01-03T18:08:34.302Z,0.86
2017-01-03T18:10:46.603Z,0.85
2017-01-03T18:12:59.087Z,0.8
2017-01-03T18:15:11.743Z,0.72
2017-01-03T18:17:19.152Z,0.64
2017-01-03T18:19:31.644Z,0.58
2017-01-03T18:21:39.302Z,0.56
2017-01-03T18:23:51.931Z,0.54
2017-01-03T18:26:04.391Z,0.55
2017-01-03T18:28:16.680Z,0.56
2017-01-03T18:30:36.617Z,0.58
2017-01-03T18:32:55.409Z,0.63
2017-01-03T18:35:13.349Z,0.7
2017-01-03T18:37:28.561Z,0.77
2017-01-03T18:39:45.530Z,0.85
2017-01-03T18:41:58.883Z,0.91
2017-01-03T18:44:18.363Z,0.95
2017-01-03T18:46:30.785Z,1
2017-01-03T18:48:39.020Z,1.03
2017-01-03T18:50:46.514Z,1.06
2017-01-03T18:53:00.935Z,1.09
2017-01-03T18:55:13.316Z,1.12
2017-01-03T18:57:25.864Z,1.14
2017-01-03T18:59:44.302Z,1.16
2017-01-03T19:02:07.384Z,1.17
2017-01-03T19:04:21.662Z,1.15
2017-01-03T19:06:49.251Z,1.09
2017-01-03T19:09:01.706Z,1.05
2017-01-03T19:11:18.286Z,1
2017-01-03T19:13:30.768Z,0.99
2017-01-03T19:15:52.064Z,1.01
2017-01-03T19:18:20.351Z,1.02
2017-01-03T19:20:33.456Z,1.06
2017-01-03T19:22:49.042Z,1.09
2017-01-03T19:25:06.764Z,1.13
2017-01-03T19:27:14.452Z,1.16
2017-01-03T19:29:32.874Z,1.19
2017-01-03T19:31:45.612Z,1.2
2017-01-03T19:33:53.667Z,1.21
2017-01-03T19:36:04.232Z,1.23
2017-01-03T19:38:17.292Z,1.25
2017-01-03T19:40:31.537Z,1.27
2017-01-03T19:42:45.285Z,1.27
2017-01-03T19:44:54.006Z,1.26
2017-01-03T19:47:06.910Z,1.26
2017-01-03T19:49:20.592Z,1.28
2017-01-03T19:51:33.562Z,1.29
2017-01-03T19:53:46.601Z,1.3
2017-01-03T19:55:59.838Z,1.31
2017-01-03T19:58:13.541Z,1.33
2017-01-03T20:00:29.748Z,1.33
2017-01-03T20:02:47.066Z,1.33
2017-01-03T20:05:02.262Z,1.35
2017-01-03T20:07:19.527Z,1.36
2017-01-03T20:09:35.784Z,1.38
2017-01-03T20:11:50.236Z,1.38
2017-01-03T20:14:04.168Z,1.37
2017-01-03T20:16:21.453Z,1.37
2017-01-03T20:18:37.073Z,1.35
2017-01-03T20:20:54.364Z,1.32
2017-01-03T20:23:05.166Z,1.31
2017-01-03T20:25:20.728Z,1.32
2017-01-03T20:27:38.710Z,1.35
2017-01-03T20:29:55.623Z,1.38
2017-01-03T20:32:14.212Z,1.41
2017-01-03T20:34:28.776Z,1.41
2017-01-03T20:36:44.623Z,1.42
2017-01-03T20:39:03.035Z,1.43
2017-01-03T20:41:17.493Z,1.44
2017-01-03T20:43:32.514Z,1.46
2017-01-03T20:45:46.916Z,1.49
2017-01-03T20:48:02.413Z,1.51
2017-01-03T20:50:17.275Z,1.54
2017-01-03T20:52:31.977Z,1.56
2017-01-03T20:54:45.348Z,1.58
2017-01-03T20:56:58.498Z,1.6
2017-01-03T20:59:13.196Z,1.61
2017-01-03T21:01:26.845Z,1.62
2017-01-03T21:03:42.630Z,1.62
2017-01-03T21:05:52.281Z,1.62
2017-01-03T21:08:06.206Z,1.62
2017-01-03T21:10:14.805Z,1.64
2017-01-03T21:12:31.188Z,1.64
2017-01-03T21:14:44.006Z,1.67
2017-01-03T21:16:56.651Z,1.69
2017-01-03T21:19:09.638Z,1.7
2017-01-03T21:21:22.589Z,1.72
2017-01-03T21:23:30.496Z,1.72
2017-01-03T21:25:38.379Z,1.71
2017-01-03T21:27:51.146Z,1.72
2017-01-03T21:30:03.823Z,1.73
2017-01-03T21:32:11.687Z,1.76
2017-01-03T21:34:21.178Z,1.79
2017-01-03T21:36:33.951Z,1.81
2017-01-03T21:38:41.739Z,1.82
2017-01-03T21:40:54.525Z,1.84
2017-01-03T21:43:03.268Z,1.85
2017-01-03T21:45:15.854Z,1.86
2017-01-03T21:47:35.252Z,1.85
2017-01-03T21:50:02.103Z,1.85
2017-01-03T21:52:10.062Z,1.84
2017-01-03T21:54:23.512Z,1.84
2017-01-03T21:56:58.387Z,1.85
2017-01-03T21:59:31.142Z,1.88
2017-01-03T22:01:47.683Z,1.91
2017-01-03T22:04:00.118Z,1.92
2017-01-03T22:06:14.601Z,1.94
2017-01-03T22:08:28.896Z,1.95
2017-01-03T22:10:44.397Z,1.96
2017-01-03T22:12:59.270Z,1.97
2017-01-03T22:15:12.000Z,1.96
2017-01-03T22:17:34.635Z,1.96
2017-01-03T22:19:51.170Z,1.96
2017-01-03T22:22:05.509Z,1.96
2017-01-03T22:24:22.107Z,1.98
2017-01-03T22:26:35.423Z,2
2017-01-03T22:28:51.521Z,2.02
2017-01-03T22:31:09.329Z,2.05
2017-01-03T22:33:22.385Z,2.07
2017-01-03T22:35:37.002Z,2.09
2017-01-03T22:37:50.351Z,2.11
2017-01-03T22:40:05.376Z,2.13
2017-01-03T22:42:15.229Z,2.13
2017-01-03T22:44:32.234Z,2.13
2017-01-03T22:46:44.800Z,2.14
2017-01-03T22:48:59.330Z,2.16
2017-01-03T22:51:03.096Z,2.17
2017-01-03T22:53:18.369Z,2.18
2017-01-03T22:55:27.974Z,2.18
2017-01-03T22:57:45.231Z,2.18
2017-01-03T22:59:53.499Z,2.18
2017-01-03T23:02:07.235Z,2.18
2017-01-03T23:04:22.185Z,2.18
2017-01-03T23:06:35.342Z,2.18
2017-01-03T23:08:49.017Z,2.19
2017-01-03T23:10:52.866Z,2.21
2017-01-03T23:13:03.576Z,2.24
2017-01-03T23:15:18.335Z,2.25
2017-01-03T23:17:30.771Z,2.27
2017-01-03T23:19:43.270Z,2.28
2017-01-03T23:21:55.580Z,2.31
2017-01-03T23:24:08.044Z,2.34
2017-01-03T23:26:20.407Z,2.37
2017-01-03T23:28:32.792Z,2.38
2017-01-03T23:30:45.107Z,2.4
2017-01-03T23:32:57.613Z,2.41
2017-01-03T23:35:10.002Z,2.44
2017-01-03T23:37:22.616Z,2.46
2017-01-03T23:39:35.075Z,2.46
2017-01-03T23:41:47.659Z,2.47
2017-01-03T23:44:00.206Z,2.48
2017-01-03T23:46:12.594Z,2.51
2017-01-03T23:48:24.939Z,2.52
2017-01-03T23:50:37.472Z,2.53
2017-01-03T23:52:44.951Z,2.54
2017-01-03T23:54:52.363Z,2.53
2017-01-03T23:57:04.583Z,2.53
2017-01-03T23:59:17.147Z,2.52
